createdAt,value
2023-03-20T00:00:02.946Z,2.34
2023-03-20T00:02:37.309Z,2.35
2023-03-20T00:05:22.428Z,2.35
2023-03-20T00:07:55.296Z,2.36
2023-03-20T00:10:38.748Z,2.39
2023-03-20T00:13:09.724Z,2.39
2023-03-20T00:16:11.111Z,2.33
2023-03-20T00:19:09.074Z,2.30
2023-03-20T00:21:48.856Z,2.25
2023-03-20T00:24:19.932Z,2.22
2023-03-20T00:26:59.363Z,2.17
2023-03-20T00:29:36.478Z,2.14
2023-03-20T00:32:11.210Z,2.12
2023-03-20T00:34:41.274Z,2.14
2023-03-20T00:37:20.318Z,2.12
2023-03-20T00:39:50.316Z,2.13
2023-03-20T00:42:29.171Z,2.14
2023-03-20T00:45:03.470Z,2.17
2023-03-20T00:47:33.929Z,2.11
2023-03-20T00:50:21.422Z,2.09
2023-03-20T00:53:04.099Z,2.09
2023-03-20T00:55:33.173Z,2.01
2023-03-20T00:58:20.734Z,2.05
2023-03-20T01:03:50.223Z,1.94
2023-03-20T01:09:26.775Z,1.96
2023-03-20T01:11:58.904Z,1.92
2023-03-20T01:14:34.300Z,1.85
2023-03-20T01:17:03.012Z,1.84
2023-03-20T01:19:40.686Z,1.77
2023-03-20T01:25:17.646Z,1.83
2023-03-20T01:31:00.793Z,1.84
2023-03-20T01:33:36.756Z,1.80
2023-03-20T01:36:22.188Z,1.78
2023-03-20T01:39:03.204Z,1.71
2023-03-20T01:41:34.935Z,1.65
2023-03-20T01:44:18.348Z,1.62
2023-03-20T01:50:22.525Z,1.53
2023-03-20T01:55:56.994Z,1.44
2023-03-20T01:58:46.656Z,1.48
2023-03-20T02:01:34.661Z,1.42
2023-03-20T02:04:27.583Z,1.48
2023-03-20T02:07:29.757Z,1.44
2023-03-20T02:10:23.987Z,1.39
2023-03-20T02:15:37.049Z,1.40
2023-03-20T02:18:06.497Z,1.34
2023-03-20T02:21:10.575Z,1.36
2023-03-20T02:24:10.427Z,1.30
2023-03-20T02:27:30.499Z,1.27
2023-03-20T02:30:58.264Z,1.24
2023-03-20T02:34:15.298Z,1.18
2023-03-20T02:37:09.536Z,1.10
2023-03-20T02:39:55.414Z,1.10
2023-03-20T02:43:01.612Z,1.14
2023-03-20T02:45:34.861Z,1.18
2023-03-20T02:49:11.645Z,1.19
2023-03-20T02:51:20.325Z,1.19
2023-03-20T02:54:27.075Z,1.24
2023-03-20T02:57:28.833Z,1.08
2023-03-20T03:00:39.121Z,1.07
2023-03-20T03:03:39.261Z,1.10
2023-03-20T03:06:51.733Z,1.11
2023-03-20T03:09:41.417Z,1.04
2023-03-20T03:12:25.760Z,1.08
2023-03-20T03:15:10.836Z,1.02
2023-03-20T03:17:41.498Z,0.93
2023-03-20T03:20:49.413Z,0.89
2023-03-20T03:23:46.590Z,0.91
2023-03-20T03:26:32.836Z,0.88
2023-03-20T03:29:39.670Z,0.86
2023-03-20T03:32:45.790Z,0.79
2023-03-20T03:35:32.173Z,0.79
2023-03-20T03:41:08.274Z,0.85
2023-03-20T03:44:08.071Z,0.79
2023-03-20T03:47:03.222Z,0.78
2023-03-20T03:50:02.357Z,0.76
2023-03-20T03:52:33.787Z,0.72
2023-03-20T03:55:08.866Z,0.69
2023-03-20T03:58:05.299Z,0.66
2023-03-20T04:00:34.224Z,0.66
2023-03-20T04:03:01.565Z,0.60
2023-03-20T04:05:49.421Z,0.63
2023-03-20T04:08:17.295Z,0.57
2023-03-20T04:10:51.751Z,0.60
2023-03-20T04:13:19.123Z,0.65
2023-03-20T04:15:47.272Z,0.61
2023-03-20T04:18:22.157Z,0.60
2023-03-20T04:20:49.455Z,0.58
2023-03-20T04:23:16.394Z,0.60
2023-03-20T04:25:45.455Z,0.64
2023-03-20T04:28:12.559Z,0.61
2023-03-20T04:30:39.952Z,0.57
2023-03-20T04:33:07.418Z,0.64
2023-03-20T04:35:35.465Z,0.63
2023-03-20T04:38:03.108Z,0.68
2023-03-20T04:40:31.877Z,0.68
2023-03-20T04:42:59.200Z,0.71
2023-03-20T04:45:30.301Z,0.76
2023-03-20T04:48:01.827Z,0.82
2023-03-20T04:50:31.664Z,0.85
2023-03-20T04:52:59.749Z,0.90
2023-03-20T04:55:27.641Z,0.91
2023-03-20T04:57:55.728Z,0.98
2023-03-20T05:00:23.120Z,1.02
2023-03-20T05:02:53.514Z,1.14
2023-03-20T05:05:21.275Z,1.15
2023-03-20T05:07:48.891Z,1.18
2023-03-20T05:10:16.860Z,1.33
2023-03-20T05:12:44.310Z,1.37
2023-03-20T05:15:12.891Z,1.47
2023-03-20T05:17:39.811Z,1.57
2023-03-20T05:20:08.146Z,1.67
2023-03-20T05:22:35.328Z,1.74
2023-03-20T05:25:41.925Z,1.88
2023-03-20T05:28:10.427Z,2.01
2023-03-20T05:30:44.324Z,2.22
2023-03-20T05:33:16.325Z,2.43
2023-03-20T05:35:43.734Z,2.61
2023-03-20T05:38:11.461Z,2.80
2023-03-20T05:40:44.864Z,3.08
2023-03-20T05:43:27.888Z,3.29
2023-03-20T05:45:57.799Z,3.47
2023-03-20T05:48:25.890Z,3.62
2023-03-20T05:50:53.306Z,3.82
2023-03-20T05:53:20.550Z,4.01
2023-03-20T05:55:48.960Z,4.20
2023-03-20T05:58:24.847Z,4.39
2023-03-20T06:00:51.884Z,4.57
2023-03-20T06:03:19.227Z,4.87
2023-03-20T06:05:47.710Z,5.17
2023-03-20T06:08:18.748Z,5.52
2023-03-20T06:10:57.017Z,5.76
2023-03-20T06:13:25.322Z,6.09
2023-03-20T06:15:53.664Z,6.36
2023-03-20T06:18:30.842Z,6.73
2023-03-20T06:21:03.244Z,7.07
2023-03-20T06:23:29.989Z,7.37
2023-03-20T06:25:57.270Z,7.65
2023-03-20T06:28:25.954Z,8.00
2023-03-20T06:30:56.818Z,8.25
2023-03-20T06:33:24.824Z,8.56
2023-03-20T06:35:57.013Z,8.80
2023-03-20T06:38:26.396Z,8.99
2023-03-20T06:40:53.333Z,9.17
2023-03-20T06:43:26.844Z,9.44
2023-03-20T06:45:54.606Z,9.78
2023-03-20T06:48:25.033Z,10.20
2023-03-20T06:50:53.472Z,10.48
2023-03-20T06:53:21.321Z,10.65
2023-03-20T06:55:50.650Z,10.89
2023-03-20T06:58:18.083Z,11.21
2023-03-20T07:00:47.087Z,11.45
2023-03-20T07:03:14.302Z,11.64
2023-03-20T07:05:41.141Z,11.83
2023-03-20T07:08:09.209Z,11.97
2023-03-20T07:10:39.308Z,12.18
2023-03-20T07:13:06.114Z,12.48
2023-03-20T07:15:36.979Z,12.71
2023-03-20T07:18:04.452Z,13.00
2023-03-20T07:20:32.414Z,13.26
2023-03-20T07:23:00.647Z,13.49
2023-03-20T07:25:41.452Z,13.61
2023-03-20T07:28:10.499Z,13.82
2023-03-20T07:30:42.327Z,14.07
2023-03-20T07:33:11.251Z,14.35
2023-03-20T07:35:39.938Z,14.60
2023-03-20T07:38:08.684Z,14.88
2023-03-20T07:40:36.237Z,15.09
2023-03-20T07:43:03.567Z,15.34
2023-03-20T07:45:31.505Z,15.50
2023-03-20T07:48:00.224Z,15.67
2023-03-20T07:50:27.702Z,15.74
2023-03-20T07:52:55.401Z,15.98
2023-03-20T07:55:26.051Z,16.13
2023-03-20T07:57:53.683Z,16.25
2023-03-20T08:00:22.093Z,16.43
2023-03-20T08:02:49.812Z,16.66
2023-03-20T08:05:17.858Z,16.88
2023-03-20T08:07:46.132Z,17.07
2023-03-20T08:10:13.708Z,17.13
2023-03-20T08:12:41.260Z,17.12
2023-03-20T08:15:09.962Z,17.33
2023-03-20T08:17:38.057Z,17.48
2023-03-20T08:20:05.323Z,17.52
2023-03-20T08:22:32.620Z,17.60
2023-03-20T08:25:06.791Z,17.66
2023-03-20T08:27:40.061Z,17.73
2023-03-20T08:30:09.108Z,17.95
2023-03-20T08:32:36.934Z,18.02
2023-03-20T08:35:22.081Z,18.04
2023-03-20T08:37:57.241Z,17.96
2023-03-20T08:40:25.440Z,17.79
2023-03-20T08:42:52.515Z,17.82
2023-03-20T08:45:19.472Z,17.79
2023-03-20T08:47:50.689Z,17.80
2023-03-20T08:50:20.168Z,18.02
2023-03-20T08:52:47.298Z,18.07
2023-03-20T08:55:15.896Z,18.15
2023-03-20T08:57:43.892Z,18.33
2023-03-20T09:00:15.017Z,18.48
2023-03-20T09:02:44.778Z,18.63
2023-03-20T09:05:16.728Z,18.69
2023-03-20T09:07:44.223Z,18.75
2023-03-20T09:10:13.084Z,18.79
2023-03-20T09:12:40.365Z,18.82
2023-03-20T09:15:08.854Z,18.79
2023-03-20T09:17:39.212Z,18.75
2023-03-20T09:20:07.696Z,18.73
2023-03-20T09:22:45.733Z,18.67
2023-03-20T09:25:13.948Z,18.77
2023-03-20T09:27:41.381Z,18.72
2023-03-20T09:30:09.432Z,18.63
2023-03-20T09:32:37.697Z,18.74
2023-03-20T09:35:06.372Z,18.74
2023-03-20T09:37:33.376Z,18.72
2023-03-20T09:40:00.626Z,18.80
2023-03-20T09:42:48.414Z,18.81
2023-03-20T09:45:51.922Z,19.08
2023-03-20T09:48:59.463Z,19.07
2023-03-20T09:51:37.692Z,19.09
2023-03-20T09:54:47.096Z,19.19
2023-03-20T09:57:24.592Z,19.15
2023-03-20T09:59:58.426Z,19.20
2023-03-20T10:02:52.152Z,19.33
2023-03-20T10:05:35.106Z,19.55
2023-03-20T10:08:05.116Z,19.68
2023-03-20T10:10:52.980Z,19.78
2023-03-20T10:13:37.925Z,19.88
2023-03-20T10:16:25.923Z,20.02
2023-03-20T10:19:16.231Z,20.22
2023-03-20T10:21:46.134Z,20.32
2023-03-20T10:24:26.125Z,20.38
2023-03-20T10:26:56.516Z,20.40
2023-03-20T10:29:36.977Z,20.34
2023-03-20T10:32:28.703Z,20.47
2023-03-20T10:35:23.289Z,20.62
2023-03-20T10:38:08.610Z,21.04
2023-03-20T10:40:38.888Z,21.23
2023-03-20T10:43:21.665Z,21.24
2023-03-20T10:45:59.700Z,21.12
2023-03-20T10:48:32.233Z,20.92
2023-03-20T10:51:02.711Z,20.88
2023-03-20T10:53:33.614Z,20.76
2023-03-20T10:56:13.375Z,20.91
2023-03-20T10:58:46.406Z,21.07
2023-03-20T11:01:21.199Z,21.13
2023-03-20T11:03:52.496Z,21.16
2023-03-20T11:06:29.740Z,21.15
2023-03-20T11:08:58.998Z,21.17
2023-03-20T11:11:29.196Z,21.26
2023-03-20T11:13:57.641Z,21.33
2023-03-20T11:16:32.376Z,21.35
2023-03-20T11:19:09.913Z,21.45
2023-03-20T11:21:45.192Z,21.39
2023-03-20T11:24:38.929Z,21.32
2023-03-20T11:27:19.735Z,21.11
2023-03-20T11:29:50.678Z,21.10
2023-03-20T11:32:27.649Z,21.12
2023-03-20T11:34:59.507Z,21.21
2023-03-20T11:37:35.005Z,21.38
2023-03-20T11:40:34.756Z,21.37
2023-03-20T11:43:02.542Z,21.26
2023-03-20T11:45:43.543Z,20.99
2023-03-20T11:48:21.225Z,20.68
2023-03-20T11:51:06.241Z,20.51
2023-03-20T11:54:02.664Z,20.57
2023-03-20T11:56:33.380Z,20.79
2023-03-20T11:59:09.633Z,20.93
2023-03-20T12:01:55.099Z,20.97
2023-03-20T12:04:37.950Z,20.97
2023-03-20T12:07:05.231Z,20.90
2023-03-20T12:09:38.825Z,20.85
2023-03-20T12:12:24.543Z,20.99
2023-03-20T12:15:08.677Z,21.04
2023-03-20T12:17:45.080Z,21.06
2023-03-20T12:20:49.784Z,21.09
2023-03-20T12:23:41.358Z,21.00
2023-03-20T12:26:14.720Z,20.80
2023-03-20T12:28:53.319Z,20.76
2023-03-20T12:31:55.725Z,20.62
2023-03-20T12:34:44.597Z,20.56
2023-03-20T12:37:13.831Z,20.41
2023-03-20T12:39:54.084Z,20.46
2023-03-20T12:42:51.467Z,20.53
2023-03-20T12:45:26.745Z,20.70
2023-03-20T12:48:05.367Z,20.64
2023-03-20T12:50:54.526Z,20.77
2023-03-20T12:53:40.754Z,20.91
2023-03-20T12:56:32.335Z,20.98
2023-03-20T12:59:20.161Z,20.94
2023-03-20T13:02:12.799Z,20.95
2023-03-20T13:04:49.265Z,20.98
2023-03-20T13:07:22.709Z,21.07
2023-03-20T13:10:05.333Z,20.96
2023-03-20T13:13:06.770Z,20.73
2023-03-20T13:15:52.895Z,20.67
2023-03-20T13:18:37.822Z,20.63
2023-03-20T13:21:11.954Z,20.35
2023-03-20T13:23:57.418Z,20.40
2023-03-20T13:26:47.581Z,20.38
2023-03-20T13:29:41.977Z,20.27
2023-03-20T13:32:12.719Z,20.33
2023-03-20T13:35:14.041Z,20.25
2023-03-20T13:38:04.159Z,20.26
2023-03-20T13:40:39.265Z,20.32
2023-03-20T13:43:41.491Z,20.27
2023-03-20T13:46:17.822Z,20.14
2023-03-20T13:48:47.017Z,20.03
2023-03-20T13:51:43.004Z,19.96
2023-03-20T13:54:43.807Z,19.97
2023-03-20T13:57:11.745Z,20.08
2023-03-20T14:00:13.672Z,20.00
2023-03-20T14:03:03.435Z,19.94
2023-03-20T14:05:36.759Z,19.95
2023-03-20T14:08:28.090Z,19.95
2023-03-20T14:11:11.362Z,19.91
2023-03-20T14:13:39.104Z,19.91
2023-03-20T14:16:14.416Z,19.89
2023-03-20T14:18:45.033Z,19.93
2023-03-20T14:21:18.793Z,19.83
2023-03-20T14:23:52.169Z,19.88
2023-03-20T14:26:24.867Z,19.93
2023-03-20T14:29:03.978Z,19.83
2023-03-20T14:31:34.992Z,19.87
2023-03-20T14:34:18.009Z,20.02
2023-03-20T14:37:03.800Z,20.12
2023-03-20T14:39:37.452Z,20.15
2023-03-20T14:42:42.357Z,20.15
2023-03-20T14:45:37.636Z,20.11
2023-03-20T14:48:12.253Z,20.05
2023-03-20T14:51:19.034Z,20.00
2023-03-20T14:53:57.165Z,19.94
2023-03-20T14:56:34.503Z,19.89
2023-03-20T14:59:12.907Z,19.78
2023-03-20T15:01:39.966Z,19.75
2023-03-20T15:04:42.103Z,19.70
2023-03-20T15:07:21.973Z,19.68
2023-03-20T15:09:53.861Z,19.72
2023-03-20T15:12:28.006Z,19.75
2023-03-20T15:15:04.046Z,19.88
2023-03-20T15:17:47.519Z,19.85
2023-03-20T15:20:21.301Z,19.66
2023-03-20T15:22:50.768Z,19.42
2023-03-20T15:25:20.375Z,19.72
2023-03-20T15:27:48.281Z,19.81
2023-03-20T15:30:18.366Z,19.72
2023-03-20T15:32:46.879Z,19.59
2023-03-20T15:35:18.504Z,19.34
2023-03-20T15:37:51.265Z,19.09
2023-03-20T15:40:37.185Z,18.91
2023-03-20T15:43:24.732Z,18.58
2023-03-20T15:46:16.273Z,18.37
2023-03-20T15:48:50.204Z,18.13
2023-03-20T15:51:19.522Z,18.07
2023-03-20T15:53:49.546Z,17.96
2023-03-20T15:56:20.128Z,17.85
2023-03-20T15:58:52.758Z,17.63
2023-03-20T16:01:22.843Z,17.48
2023-03-20T16:03:51.731Z,17.35
2023-03-20T16:06:25.091Z,17.29
2023-03-20T16:09:09.804Z,17.19
2023-03-20T16:11:42.943Z,16.90
2023-03-20T16:14:23.264Z,16.73
2023-03-20T16:16:53.994Z,16.51
2023-03-20T16:19:22.420Z,16.33
2023-03-20T16:22:09.744Z,16.03
2023-03-20T16:24:40.241Z,15.70
2023-03-20T16:27:11.893Z,15.50
2023-03-20T16:29:44.169Z,15.25
2023-03-20T16:32:34.222Z,14.93
2023-03-20T16:35:05.931Z,14.72
2023-03-20T16:37:43.627Z,14.54
2023-03-20T16:40:21.887Z,14.27
2023-03-20T16:43:17.636Z,13.98
2023-03-20T16:49:54.546Z,13.50
2023-03-20T16:52:31.750Z,13.20
2023-03-20T16:55:01.348Z,12.96
2023-03-20T16:57:39.454Z,12.86
2023-03-20T17:00:21.465Z,12.66
2023-03-20T17:03:00.841Z,12.50
2023-03-20T17:05:42.350Z,12.31
2023-03-20T17:08:24.033Z,12.17
2023-03-20T17:10:57.529Z,12.01
2023-03-20T17:13:25.327Z,11.87
2023-03-20T17:15:56.498Z,11.64
2023-03-20T17:18:25.141Z,11.58
2023-03-20T17:21:26.268Z,11.49
2023-03-20T17:23:44.828Z,11.27
2023-03-20T17:26:16.585Z,11.15
2023-03-20T17:28:46.077Z,10.92
2023-03-20T17:31:23.185Z,10.81
2023-03-20T17:34:01.544Z,10.67
2023-03-20T17:36:36.633Z,10.63
2023-03-20T17:39:07.670Z,10.54
2023-03-20T17:41:56.682Z,10.33
2023-03-20T17:44:57.752Z,10.30
2023-03-20T17:47:54.937Z,10.17
2023-03-20T17:50:27.839Z,10.12
2023-03-20T17:56:17.131Z,9.89
2023-03-20T17:59:05.363Z,9.82
2023-03-20T18:01:37.397Z,9.76
2023-03-20T18:05:43.692Z,9.64
2023-03-20T18:08:02.132Z,9.55
2023-03-20T18:13:22.166Z,9.48
2023-03-20T18:16:38.886Z,9.27
2023-03-20T18:19:57.811Z,9.12
2023-03-20T18:23:22.380Z,9.02
2023-03-20T18:26:14.614Z,8.87
2023-03-20T18:28:41.606Z,8.75
2023-03-20T18:35:16.228Z,8.55
2023-03-20T18:37:53.751Z,8.49
2023-03-20T18:41:03.885Z,8.49
2023-03-20T18:43:36.665Z,8.42
2023-03-20T18:46:03.854Z,8.35
2023-03-20T18:48:46.274Z,8.27
2023-03-20T18:51:40.241Z,8.26
2023-03-20T18:54:13.892Z,8.20
2023-03-20T18:57:06.317Z,8.20
2023-03-20T18:59:40.403Z,8.05
2023-03-20T19:05:33.328Z,7.96
2023-03-20T19:09:01.658Z,7.85
2023-03-20T19:11:28.438Z,7.76
2023-03-20T19:13:55.765Z,7.71
2023-03-20T19:17:04.293Z,7.70
2023-03-20T19:20:29.186Z,7.66
2023-03-20T19:23:09.456Z,7.51
2023-03-20T19:25:56.289Z,7.44
2023-03-20T19:32:03.477Z,7.33
2023-03-20T19:35:38.537Z,7.36
2023-03-20T19:37:41.442Z,7.33
2023-03-20T19:41:02.450Z,7.30
2023-03-20T19:44:01.476Z,7.21
2023-03-20T19:47:09.581Z,7.19
2023-03-20T19:56:19.500Z,6.98
2023-03-20T20:01:52.283Z,6.89
2023-03-20T20:04:37.067Z,6.82
2023-03-20T20:07:57.725Z,6.73
2023-03-20T20:11:34.031Z,6.66
2023-03-20T20:26:49.388Z,6.33
2023-03-20T20:29:44.260Z,6.37
2023-03-20T20:37:56.429Z,6.25
2023-03-20T20:40:00.520Z,6.29
2023-03-20T20:42:35.006Z,6.28
2023-03-20T20:45:17.143Z,6.30
2023-03-20T20:48:13.158Z,6.29
2023-03-20T20:57:11.887Z,6.25
2023-03-20T21:00:06.067Z,6.21
2023-03-20T21:02:53.057Z,6.17
2023-03-20T21:06:02.621Z,6.17
2023-03-20T21:08:32.646Z,6.11
2023-03-20T21:11:52.138Z,6.13
2023-03-20T21:24:43.689Z,6.07
2023-03-20T21:48:31.630Z,5.63
2023-03-20T21:57:11.038Z,5.74
2023-03-20T22:00:40.074Z,5.66
2023-03-20T22:02:58.941Z,5.64
2023-03-20T22:16:27.069Z,5.62
2023-03-20T22:19:34.256Z,5.54
2023-03-20T22:28:24.365Z,5.42
2023-03-20T22:34:39.482Z,5.23
2023-03-20T22:42:55.824Z,5.32
2023-03-20T22:46:07.587Z,5.33
2023-03-20T22:48:42.665Z,5.48
2023-03-20T22:52:07.905Z,5.46
2023-03-20T22:55:03.823Z,5.51
2023-03-20T22:57:42.357Z,5.47
2023-03-20T23:00:35.105Z,5.45
2023-03-20T23:03:17.526Z,5.50
2023-03-20T23:08:50.795Z,5.46
2023-03-20T23:14:54.104Z,5.54
2023-03-20T23:17:26.582Z,5.54
2023-03-20T23:20:29.360Z,5.61
2023-03-20T23:23:13.893Z,5.66
2023-03-20T23:25:46.016Z,5.65
2023-03-20T23:28:24.128Z,5.63
2023-03-20T23:34:28.849Z,5.67
2023-03-20T23:42:43.644Z,5.70
2023-03-20T23:45:22.065Z,5.72
2023-03-20T23:48:05.755Z,5.71
2023-03-20T23:50:49.740Z,5.72
2023-03-20T23:56:21.841Z,5.69
2023-03-20T23:58:59.620Z,5.77
